createdAt,value
2023-04-04T00:00:42.497Z,99.90
2023-04-04T00:03:10.273Z,99.90
2023-04-04T00:05:37.822Z,99.90
2023-04-04T00:08:05.227Z,99.90
2023-04-04T00:10:32.541Z,99.90
2023-04-04T00:13:00.141Z,99.90
2023-04-04T00:15:27.327Z,99.90
2023-04-04T00:17:54.630Z,99.90
2023-04-04T00:20:21.851Z,99.90
2023-04-04T00:22:49.076Z,99.90
2023-04-04T00:25:16.245Z,99.90
2023-04-04T00:27:48.181Z,99.90
2023-04-04T00:30:16.198Z,99.90
2023-04-04T00:32:43.506Z,99.90
2023-04-04T00:35:10.861Z,99.90
2023-04-04T00:37:38.926Z,99.90
2023-04-04T00:40:08.752Z,99.90
2023-04-04T00:42:36.354Z,99.90
2023-04-04T00:45:04.266Z,99.90
2023-04-04T00:47:31.641Z,99.90
2023-04-04T00:49:58.837Z,99.90
2023-04-04T00:52:27.060Z,99.90
2023-04-04T00:54:56.464Z,99.90
2023-04-04T00:57:24.418Z,99.90
2023-04-04T00:59:52.490Z,99.90
2023-04-04T01:02:20.348Z,99.90
2023-04-04T01:04:48.552Z,99.90
2023-04-04T01:07:15.923Z,99.90
2023-04-04T01:09:43.770Z,99.90
2023-04-04T01:12:11.534Z,99.90
2023-04-04T01:14:38.881Z,99.90
2023-04-04T01:17:06.520Z,99.90
2023-04-04T01:19:37.868Z,99.90
2023-04-04T01:22:12.078Z,99.90
2023-04-04T01:24:43.251Z,99.90
2023-04-04T01:27:10.502Z,99.90
2023-04-04T01:29:43.708Z,99.90
2023-04-04T01:32:18.928Z,99.90
2023-04-04T01:35:06.823Z,99.90
2023-04-04T01:37:57.425Z,99.90
2023-04-04T01:40:31.774Z,99.90
2023-04-04T01:42:59.145Z,99.90
2023-04-04T01:45:29.750Z,99.90
2023-04-04T01:47:58.538Z,99.90
2023-04-04T01:50:26.512Z,99.90
2023-04-04T01:52:54.114Z,99.90
2023-04-04T01:55:21.771Z,99.90
2023-04-04T01:57:49.129Z,99.90
2023-04-04T02:00:17.507Z,99.90
2023-04-04T02:02:44.700Z,99.90
2023-04-04T02:05:12.436Z,99.90
2023-04-04T02:07:40.441Z,99.90
2023-04-04T02:10:18.389Z,99.90
2023-04-04T02:12:45.892Z,99.90
2023-04-04T02:15:13.928Z,99.90
2023-04-04T02:17:41.326Z,99.90
2023-04-04T02:20:10.564Z,99.90
2023-04-04T02:22:37.784Z,99.90
2023-04-04T02:25:05.574Z,99.90
2023-04-04T02:27:32.792Z,99.90
2023-04-04T02:30:01.718Z,99.90
2023-04-04T02:32:30.874Z,99.90
2023-04-04T02:34:58.690Z,99.90
2023-04-04T02:37:27.758Z,99.90
2023-04-04T02:39:56.649Z,99.90
2023-04-04T02:42:23.852Z,99.90
2023-04-04T02:44:51.528Z,99.90
2023-04-04T02:47:19.117Z,99.90
2023-04-04T02:49:47.073Z,99.90
2023-04-04T02:52:15.525Z,99.90
2023-04-04T02:54:46.237Z,99.90
2023-04-04T02:57:22.315Z,99.90
2023-04-04T02:59:49.468Z,99.90
2023-04-04T03:02:16.832Z,99.90
2023-04-04T03:04:44.431Z,99.90
2023-04-04T03:07:12.548Z,99.90
2023-04-04T03:09:39.973Z,99.90
2023-04-04T03:12:07.505Z,99.90
2023-04-04T03:14:38.842Z,99.90
2023-04-04T03:17:07.999Z,99.90
2023-04-04T03:19:35.457Z,99.90
2023-04-04T03:22:02.674Z,99.90
2023-04-04T03:24:34.013Z,99.90
2023-04-04T03:27:01.768Z,99.90
2023-04-04T03:29:29.443Z,99.90
2023-04-04T03:31:58.024Z,99.90
2023-04-04T03:34:27.160Z,99.90
2023-04-04T03:36:54.329Z,99.90
2023-04-04T03:39:21.586Z,99.90
2023-04-04T03:41:48.752Z,99.90
2023-04-04T03:44:16.276Z,99.90
2023-04-04T03:46:43.593Z,99.90
2023-04-04T03:49:13.670Z,99.90
2023-04-04T03:51:40.862Z,99.90
2023-04-04T03:54:08.484Z,99.90
2023-04-04T03:56:36.546Z,99.90
2023-04-04T03:59:07.105Z,99.90
2023-04-04T04:01:34.424Z,99.90
2023-04-04T04:04:03.151Z,99.90
2023-04-04T04:06:30.410Z,99.90
2023-04-04T04:08:58.324Z,99.90
2023-04-04T04:11:25.598Z,99.90
2023-04-04T04:13:52.791Z,99.90
2023-04-04T04:16:20.060Z,99.90
2023-04-04T04:18:49.170Z,99.90
2023-04-04T04:21:24.081Z,99.90
2023-04-04T04:23:52.390Z,99.90
2023-04-04T04:26:19.621Z,99.90
2023-04-04T04:28:48.219Z,99.90
2023-04-04T04:31:20.891Z,99.90
2023-04-04T04:34:17.202Z,99.90
2023-04-04T04:36:44.442Z,99.90
2023-04-04T04:39:19.356Z,99.90
2023-04-04T04:42:06.840Z,99.90
2023-04-04T04:44:36.642Z,99.90
2023-04-04T04:47:05.599Z,99.90
2023-04-04T04:49:38.984Z,99.90
2023-04-04T04:52:09.592Z,99.90
2023-04-04T04:54:41.242Z,99.90
2023-04-04T04:57:09.052Z,99.90
2023-04-04T04:59:41.363Z,99.90
2023-04-04T05:02:10.503Z,99.90
2023-04-04T05:04:44.926Z,99.90
2023-04-04T05:07:15.603Z,99.90
2023-04-04T05:09:46.170Z,99.90
2023-04-04T05:12:14.443Z,99.90
2023-04-04T05:14:46.350Z,99.90
2023-04-04T05:17:14.316Z,99.90
2023-04-04T05:19:42.582Z,99.90
2023-04-04T05:22:13.977Z,99.90
2023-04-04T05:24:46.573Z,99.90
2023-04-04T05:27:16.985Z,99.90
2023-04-04T05:29:48.699Z,99.90
2023-04-04T05:32:16.477Z,99.90
2023-04-04T05:34:50.470Z,99.90
2023-04-04T05:37:20.474Z,99.90
2023-04-04T05:39:49.907Z,99.90
2023-04-04T05:42:18.538Z,99.90
2023-04-04T05:44:51.788Z,99.90
2023-04-04T05:47:21.852Z,99.90
2023-04-04T05:49:50.396Z,99.90
2023-04-04T05:52:18.905Z,99.90
2023-04-04T05:54:46.379Z,99.90
2023-04-04T05:57:23.541Z,99.90
2023-04-04T05:59:55.548Z,99.90
2023-04-04T06:02:22.862Z,99.90
2023-04-04T06:04:55.506Z,99.90
2023-04-04T06:07:35.914Z,99.90
2023-04-04T06:10:07.713Z,99.90
2023-04-04T06:12:36.468Z,99.90
2023-04-04T06:15:08.897Z,99.90
2023-04-04T06:17:37.632Z,99.90
2023-04-04T06:20:06.430Z,99.90
2023-04-04T06:22:39.019Z,99.90
2023-04-04T06:25:10.514Z,99.90
2023-04-04T06:27:39.388Z,99.90
2023-04-04T06:30:11.466Z,99.90
2023-04-04T06:32:39.827Z,99.90
2023-04-04T06:35:08.636Z,99.90
2023-04-04T06:37:56.938Z,99.90
2023-04-04T06:40:25.660Z,99.90
2023-04-04T06:42:57.853Z,99.90
2023-04-04T06:45:28.598Z,99.90
2023-04-04T06:47:57.286Z,99.90
2023-04-04T06:50:24.750Z,99.90
2023-04-04T06:52:52.639Z,99.90
2023-04-04T06:55:19.922Z,99.90
2023-04-04T06:57:47.813Z,99.90
2023-04-04T07:00:16.555Z,99.90
2023-04-04T07:02:43.772Z,99.90
2023-04-04T07:05:11.063Z,99.90
2023-04-04T07:07:38.231Z,99.90
2023-04-04T07:10:06.055Z,99.90
2023-04-04T07:12:33.298Z,99.90
2023-04-04T07:15:00.574Z,99.90
2023-04-04T07:17:28.212Z,95.50
2023-04-04T07:19:56.137Z,93.60
2023-04-04T07:22:49.759Z,89.00
2023-04-04T07:25:17.142Z,77.40
2023-04-04T07:27:57.305Z,75.00
2023-04-04T07:30:39.452Z,69.50
2023-04-04T07:33:06.913Z,70.10
2023-04-04T07:35:38.315Z,68.00
2023-04-04T07:38:05.484Z,64.70
2023-04-04T07:40:32.631Z,61.60
2023-04-04T07:42:59.829Z,65.70
2023-04-04T07:45:28.181Z,61.20
2023-04-04T07:47:55.963Z,57.20
2023-04-04T07:50:23.883Z,54.60
2023-04-04T07:52:52.213Z,53.00
2023-04-04T07:55:20.169Z,50.80
2023-04-04T07:57:47.504Z,49.70
2023-04-04T08:00:21.534Z,48.10
2023-04-04T08:02:56.259Z,48.40
2023-04-04T08:05:23.923Z,46.60
2023-04-04T08:07:52.526Z,45.20
2023-04-04T08:10:21.521Z,44.60
2023-04-04T08:12:49.438Z,42.80
2023-04-04T08:15:16.690Z,42.80
2023-04-04T08:17:44.254Z,41.70
2023-04-04T08:20:12.265Z,42.40
2023-04-04T08:22:42.046Z,40.50
2023-04-04T08:25:11.575Z,40.90
2023-04-04T08:27:44.832Z,39.80
2023-04-04T08:30:15.632Z,37.90
2023-04-04T08:32:45.788Z,36.60
2023-04-04T08:35:13.446Z,37.10
2023-04-04T08:37:46.140Z,37.70
2023-04-04T08:40:13.864Z,35.80
2023-04-04T08:42:44.197Z,34.10
2023-04-04T08:45:12.183Z,33.50
2023-04-04T08:47:42.939Z,35.70
2023-04-04T08:50:10.680Z,36.10
2023-04-04T08:52:38.718Z,36.60
2023-04-04T08:55:06.801Z,36.40
2023-04-04T08:57:34.660Z,37.10
2023-04-04T09:00:27.154Z,39.00
2023-04-04T09:03:20.412Z,37.80
2023-04-04T09:05:48.054Z,36.10
2023-04-04T09:08:18.090Z,35.70
2023-04-04T09:10:49.056Z,35.90
2023-04-04T09:13:17.002Z,37.40
2023-04-04T09:15:54.046Z,36.30
2023-04-04T09:18:21.228Z,36.00
2023-04-04T09:20:49.301Z,35.80
2023-04-04T09:23:20.049Z,35.40
2023-04-04T09:28:23.317Z,32.50
2023-04-04T09:30:53.622Z,31.90
2023-04-04T09:33:24.035Z,30.20
2023-04-04T09:35:58.560Z,31.50
2023-04-04T09:38:28.294Z,30.30
2023-04-04T09:40:57.122Z,31.20
2023-04-04T09:43:25.354Z,30.00
2023-04-04T09:45:55.044Z,29.30
2023-04-04T09:48:32.178Z,31.50
2023-04-04T09:50:59.764Z,30.20
2023-04-04T09:58:27.931Z,29.30
2023-04-04T10:11:11.285Z,30.00
2023-04-04T10:13:44.546Z,26.80
2023-04-04T10:16:12.248Z,26.40
2023-04-04T10:18:40.153Z,25.60
2023-04-04T10:21:33.740Z,26.20
2023-04-04T10:24:08.693Z,28.80
2023-04-04T10:26:36.946Z,27.50
2023-04-04T12:05:47.031Z,27.80
2023-04-04T12:08:15.666Z,21.90
2023-04-04T12:10:44.301Z,22.70
2023-04-04T12:13:12.949Z,24.60
2023-04-04T12:15:42.857Z,24.90
2023-04-04T12:18:10.620Z,26.40
2023-04-04T12:20:39.953Z,25.50
2023-04-04T12:23:07.165Z,24.80
2023-04-04T12:25:39.856Z,24.50
2023-04-04T12:28:08.170Z,25.10
2023-04-04T12:30:36.127Z,25.40
2023-04-04T12:33:03.528Z,24.90
2023-04-04T12:35:31.622Z,24.40
2023-04-04T12:38:10.782Z,23.70
2023-04-04T12:40:39.014Z,24.20
2023-04-04T12:43:07.905Z,24.70
2023-04-04T12:50:54.635Z,23.50
2023-04-04T12:53:29.360Z,19.90
2023-04-04T12:56:05.053Z,19.60
2023-04-04T12:58:34.283Z,20.60
2023-04-04T13:01:03.722Z,20.90
2023-04-04T13:03:31.050Z,19.90
2023-04-04T13:05:59.459Z,20.10
2023-04-04T13:08:27.988Z,21.40
2023-04-04T13:11:04.381Z,20.20
2023-04-04T13:13:36.345Z,20.60
2023-04-04T13:16:30.454Z,21.40
2023-04-04T13:18:58.822Z,21.90
2023-04-04T13:21:26.774Z,21.50
2023-04-04T13:23:54.836Z,22.10
2023-04-04T13:26:22.610Z,23.10
2023-04-04T13:28:49.915Z,23.50
2023-04-04T13:31:17.384Z,23.40
2023-04-04T13:33:44.732Z,22.30
2023-04-04T13:36:14.006Z,22.80
2023-04-04T13:38:41.345Z,24.20
2023-04-04T13:41:08.593Z,23.10
2023-04-04T13:43:36.183Z,23.30
2023-04-04T13:46:03.388Z,24.30
2023-04-04T13:48:31.309Z,22.80
2023-04-04T13:50:58.508Z,22.90
2023-04-04T13:53:27.432Z,23.00
2023-04-04T13:56:16.155Z,23.60
2023-04-04T13:58:42.972Z,22.50
2023-04-04T14:01:10.530Z,22.70
2023-04-04T14:03:38.582Z,23.50
2023-04-04T14:06:10.281Z,23.50
2023-04-04T14:09:03.176Z,24.20
2023-04-04T14:11:31.514Z,23.40
2023-04-04T14:14:24.517Z,22.50
2023-04-04T14:16:52.939Z,24.30
2023-04-04T14:19:20.235Z,23.60
2023-04-04T14:22:12.673Z,23.00
2023-04-04T14:24:40.184Z,24.40
2023-04-04T14:27:07.803Z,23.20
2023-04-04T14:29:35.089Z,22.10
2023-04-04T14:32:03.644Z,22.40
2023-04-04T14:34:31.461Z,21.20
2023-04-04T14:36:59.810Z,21.70
2023-04-04T14:39:27.849Z,22.90
2023-04-04T14:41:56.237Z,23.80
2023-04-04T14:44:24.906Z,23.90
2023-04-04T14:46:55.114Z,24.20
2023-04-04T14:49:22.726Z,24.50
2023-04-04T14:51:51.972Z,24.50
2023-04-04T14:54:19.179Z,24.80
2023-04-04T14:56:46.947Z,25.30
2023-04-04T14:59:14.214Z,25.80
2023-04-04T15:01:41.917Z,25.80
2023-04-04T15:04:11.855Z,25.40
2023-04-04T15:06:39.725Z,25.90
2023-04-04T15:09:08.539Z,26.10
2023-04-04T15:11:35.991Z,27.40
2023-04-04T15:14:04.196Z,26.90
2023-04-04T15:16:33.131Z,28.60
2023-04-04T15:19:25.724Z,28.40
2023-04-04T15:21:54.730Z,28.10
2023-04-04T15:24:21.927Z,27.90
2023-04-04T15:26:49.297Z,28.60
2023-04-04T15:29:16.475Z,28.40
2023-04-04T15:31:43.735Z,28.30
2023-04-04T15:34:11.006Z,29.40
2023-04-04T15:36:38.216Z,28.80
2023-04-04T15:39:06.692Z,28.40
2023-04-04T15:41:33.924Z,29.30
2023-04-04T15:44:01.376Z,28.30
2023-04-04T15:46:30.408Z,28.90
2023-04-04T15:48:57.656Z,29.40
2023-04-04T15:51:25.760Z,29.80
2023-04-04T15:53:56.562Z,29.80
2023-04-04T15:56:23.786Z,30.90
2023-04-04T15:58:51.114Z,31.50
2023-04-04T16:01:18.456Z,30.90
2023-04-04T16:03:47.250Z,31.50
2023-04-04T16:06:17.094Z,31.30
2023-04-04T16:08:44.748Z,32.00
2023-04-04T16:11:11.899Z,32.60
2023-04-04T16:13:39.656Z,32.80
2023-04-04T16:16:06.998Z,32.70
2023-04-04T16:18:34.182Z,33.50
2023-04-04T16:21:04.517Z,34.00
2023-04-04T16:23:32.374Z,32.90
2023-04-04T16:25:59.747Z,33.60
2023-04-04T16:28:28.015Z,34.20
2023-04-04T16:30:55.347Z,34.10
2023-04-04T16:33:25.984Z,33.80
2023-04-04T16:35:53.869Z,35.00
2023-04-04T16:38:22.138Z,35.20
2023-04-04T16:40:49.395Z,35.90
2023-04-04T16:43:16.696Z,36.30
2023-04-04T16:45:43.962Z,36.70
2023-04-04T16:48:13.236Z,38.10
2023-04-04T16:50:40.851Z,39.20
2023-04-04T16:53:09.441Z,39.10
2023-04-04T16:55:37.555Z,40.10
2023-04-04T16:58:30.910Z,40.30
2023-04-04T17:00:58.239Z,41.30
2023-04-04T17:03:26.220Z,42.30
2023-04-04T17:05:56.128Z,41.80
2023-04-04T17:08:23.307Z,42.80
2023-04-04T17:11:16.622Z,44.30
2023-04-04T17:13:43.997Z,45.60
2023-04-04T17:16:11.421Z,47.20
2023-04-04T17:18:39.711Z,47.60
2023-04-04T17:21:07.733Z,48.30
2023-04-04T17:23:35.076Z,49.60
2023-04-04T17:26:02.859Z,50.60
2023-04-04T17:28:30.799Z,51.40
2023-04-04T17:30:59.308Z,52.10
2023-04-04T17:33:27.321Z,53.10
2023-04-04T17:35:54.868Z,53.50
2023-04-04T17:38:23.583Z,53.90
2023-04-04T17:40:52.669Z,54.80
2023-04-04T17:43:21.231Z,55.30
2023-04-04T17:45:49.458Z,55.90
2023-04-04T17:48:16.821Z,56.20
2023-04-04T17:50:44.648Z,57.10
2023-04-04T17:53:12.309Z,58.60
2023-04-04T17:55:40.699Z,59.40
2023-04-04T17:58:08.123Z,59.60
2023-04-04T18:00:35.878Z,61.30
2023-04-04T18:03:04.699Z,61.50
2023-04-04T18:05:33.557Z,61.70
2023-04-04T18:08:04.684Z,63.10
2023-04-04T18:10:33.593Z,63.60
2023-04-04T18:13:01.530Z,63.70
2023-04-04T18:15:33.650Z,63.80
2023-04-04T18:18:02.017Z,65.10
2023-04-04T18:20:34.970Z,64.60
2023-04-04T18:23:04.194Z,64.90
2023-04-04T18:25:33.319Z,65.10
2023-04-04T18:28:04.927Z,64.70
2023-04-04T18:30:34.932Z,64.60
2023-04-04T18:33:04.363Z,64.50
2023-04-04T18:35:31.986Z,64.40
2023-04-04T18:37:59.684Z,64.30
2023-04-04T18:40:27.136Z,64.70
2023-04-04T18:42:54.687Z,65.50
2023-04-04T18:45:29.943Z,67.30
2023-04-04T18:48:01.646Z,68.10
2023-04-04T18:50:29.869Z,68.70
2023-04-04T18:52:57.214Z,69.00
2023-04-04T18:55:25.520Z,69.70
2023-04-04T18:57:53.361Z,70.80
2023-04-04T19:00:21.145Z,72.10
2023-04-04T19:02:52.016Z,73.60
2023-04-04T19:05:24.893Z,75.60
2023-04-04T19:07:54.239Z,77.80
2023-04-04T19:10:22.238Z,79.00
2023-04-04T19:12:49.808Z,79.80
2023-04-04T19:15:17.592Z,82.90
2023-04-04T19:17:45.102Z,83.40
2023-04-04T19:20:13.011Z,84.70
2023-04-04T19:22:40.522Z,85.80
2023-04-04T19:25:09.137Z,86.40
2023-04-04T19:27:38.512Z,87.90
2023-04-04T19:30:35.085Z,89.10
2023-04-04T19:33:03.290Z,91.10
2023-04-04T19:36:21.974Z,91.80
2023-04-04T19:38:49.354Z,91.90
2023-04-04T19:41:16.723Z,92.60
2023-04-04T19:43:46.985Z,93.60
2023-04-04T19:46:25.566Z,94.30
2023-04-04T19:49:00.505Z,94.90
2023-04-04T19:51:28.484Z,96.20
2023-04-04T19:53:57.731Z,96.70
2023-04-04T19:56:27.530Z,98.30
2023-04-04T19:59:01.382Z,99.10
2023-04-04T20:01:30.083Z,99.70
2023-04-04T20:04:04.806Z,99.90
2023-04-04T20:06:37.064Z,99.90
2023-04-04T20:09:14.348Z,99.90
2023-04-04T20:11:45.408Z,99.90
2023-04-04T20:14:12.723Z,99.90
2023-04-04T20:16:40.146Z,99.90
2023-04-04T20:19:08.466Z,99.90
2023-04-04T20:21:36.106Z,99.90
2023-04-04T20:24:08.102Z,99.90
2023-04-04T20:26:35.854Z,99.90
2023-04-04T20:29:06.885Z,99.90
2023-04-04T20:31:37.854Z,99.90
2023-04-04T20:34:07.280Z,99.90
2023-04-04T20:36:42.086Z,99.90
2023-04-04T20:39:41.216Z,99.90
2023-04-04T20:42:18.094Z,99.90
2023-04-04T20:44:46.598Z,99.90
2023-04-04T20:47:43.458Z,99.90
2023-04-04T20:50:23.144Z,99.90
2023-04-04T20:52:51.396Z,99.90
2023-04-04T20:55:20.543Z,99.90
2023-04-04T20:57:50.159Z,99.90
2023-04-04T21:00:29.532Z,99.90
2023-04-04T21:03:02.573Z,99.90
2023-04-04T21:05:39.686Z,99.90
2023-04-04T21:08:22.057Z,99.90
2023-04-04T21:10:51.201Z,99.90
2023-04-04T21:13:31.160Z,99.90
2023-04-04T21:16:04.497Z,99.90
2023-04-04T21:18:35.001Z,99.90
2023-04-04T21:21:17.552Z,99.90
2023-04-04T21:23:50.782Z,99.90
2023-04-04T21:26:32.800Z,99.90
2023-04-04T21:29:08.766Z,99.90
2023-04-04T21:31:41.138Z,99.90
2023-04-04T21:34:11.422Z,99.90
2023-04-04T21:36:38.990Z,99.90
2023-04-04T21:39:10.865Z,99.90
2023-04-04T21:41:38.740Z,99.90
2023-04-04T21:44:10.072Z,99.90
2023-04-04T21:46:39.939Z,99.90
2023-04-04T21:49:08.783Z,99.90
2023-04-04T21:51:36.854Z,99.90
2023-04-04T21:54:04.996Z,99.90
2023-04-04T21:56:32.485Z,99.90
2023-04-04T21:59:01.989Z,99.90
2023-04-04T22:01:30.415Z,99.90
2023-04-04T22:03:58.548Z,99.90
2023-04-04T22:06:27.121Z,99.90
2023-04-04T22:08:56.369Z,99.90
2023-04-04T22:11:25.925Z,99.90
2023-04-04T22:14:03.542Z,99.90
2023-04-04T22:16:32.141Z,99.90
2023-04-04T22:19:00.924Z,99.90
2023-04-04T22:21:28.303Z,99.90
2023-04-04T22:24:01.663Z,99.90
2023-04-04T22:26:32.351Z,99.90
2023-04-04T22:29:02.844Z,99.90
2023-04-04T22:31:31.143Z,99.90
2023-04-04T22:33:58.537Z,99.90
2023-04-04T22:36:25.713Z,99.90
2023-04-04T22:38:59.045Z,99.90
2023-04-04T22:41:28.285Z,99.90
2023-04-04T22:43:57.879Z,99.90
2023-04-04T22:46:26.344Z,99.90
2023-04-04T22:49:05.594Z,99.90
2023-04-04T22:51:44.728Z,99.90
2023-04-04T22:54:14.803Z,99.90
2023-04-04T22:56:42.172Z,99.90
2023-04-04T22:59:09.572Z,99.90
2023-04-04T23:01:36.931Z,99.90
2023-04-04T23:04:04.286Z,99.90
2023-04-04T23:06:31.606Z,99.90
2023-04-04T23:08:59.392Z,99.90
2023-04-04T23:11:27.599Z,99.90
2023-04-04T23:13:56.714Z,99.90
2023-04-04T23:16:26.285Z,99.90
2023-04-04T23:18:53.779Z,99.90
2023-04-04T23:21:21.860Z,99.90
2023-04-04T23:23:49.762Z,99.90
2023-04-04T23:26:17.108Z,99.90
2023-04-04T23:28:44.864Z,99.90
2023-04-04T23:31:12.075Z,99.90
2023-04-04T23:33:39.325Z,99.90
2023-04-04T23:36:07.303Z,99.90
2023-04-04T23:38:35.401Z,99.90
2023-04-04T23:41:02.593Z,99.90
2023-04-04T23:43:29.763Z,99.90
2023-04-04T23:45:56.947Z,99.90
2023-04-04T23:48:24.780Z,99.90
2023-04-04T23:50:54.263Z,99.90
2023-04-04T23:53:21.662Z,99.90
2023-04-04T23:56:13.876Z,99.90
2023-04-04T23:58:41.276Z,99.90
